createdAt,value
2018-01-25T00:01:51.502Z,42.84
2018-01-25T00:04:21.415Z,42.73
2018-01-25T00:06:49.178Z,42.79
2018-01-25T00:09:21.281Z,42.83
2018-01-25T00:11:51.292Z,42.72
2018-01-25T00:14:21.378Z,42.87
2018-01-25T00:16:49.184Z,42.77
2018-01-25T00:19:16.906Z,42.68
2018-01-25T00:21:44.845Z,42.89
2018-01-25T00:24:12.478Z,42.96
2018-01-25T00:26:44.540Z,42.84
2018-01-25T00:29:13.241Z,42.77
2018-01-25T00:31:45.250Z,42.78
2018-01-25T00:34:13.183Z,42.69
2018-01-25T00:36:40.826Z,42.74
2018-01-25T00:39:11.002Z,42.55
2018-01-25T00:41:38.820Z,42.59
2018-01-25T00:44:06.834Z,42.67
2018-01-25T00:46:34.777Z,42.80
2018-01-25T00:49:04.724Z,42.65
2018-01-25T00:51:32.665Z,42.59
2018-01-25T00:54:04.655Z,42.79
2018-01-25T00:56:34.567Z,42.83
2018-01-25T00:59:02.449Z,42.72
2018-01-25T01:01:30.192Z,42.72
2018-01-25T01:04:02.162Z,42.73
2018-01-25T01:06:30.133Z,42.64
2018-01-25T01:09:01.071Z,42.63
2018-01-25T01:11:28.915Z,42.60
2018-01-25T01:13:56.692Z,42.76
2018-01-25T01:16:28.704Z,42.74
2018-01-25T01:18:56.430Z,42.85
2018-01-25T01:21:24.317Z,42.97
2018-01-25T01:23:54.283Z,42.98
2018-01-25T01:26:24.121Z,42.90
2018-01-25T01:28:51.964Z,42.75
2018-01-25T01:31:19.904Z,42.82
2018-01-25T01:33:50.116Z,42.96
2018-01-25T01:36:18.143Z,42.74
2018-01-25T01:38:48.077Z,42.66
2018-01-25T01:41:16.840Z,42.73
2018-01-25T01:43:44.529Z,42.72
2018-01-25T01:46:12.444Z,42.65
2018-01-25T01:48:40.356Z,42.65
2018-01-25T01:51:08.426Z,42.71
2018-01-25T01:53:36.253Z,42.77
2018-01-25T01:56:04.007Z,42.66
2018-01-25T01:58:31.954Z,42.76
2018-01-25T02:00:59.963Z,42.90
2018-01-25T02:03:27.903Z,42.81
2018-01-25T02:05:56.646Z,42.71
2018-01-25T02:08:26.761Z,42.65
2018-01-25T02:10:54.573Z,42.48
2018-01-25T02:13:22.316Z,42.37
2018-01-25T02:15:52.817Z,42.33
2018-01-25T02:18:20.772Z,42.36
2018-01-25T02:20:48.658Z,42.28
2018-01-25T02:23:16.553Z,42.50
2018-01-25T02:25:46.646Z,42.33
2018-01-25T02:28:14.422Z,42.42
2018-01-25T02:30:42.374Z,42.37
2018-01-25T02:33:10.439Z,42.23
2018-01-25T02:35:38.379Z,42.16
2018-01-25T02:38:06.145Z,42.18
2018-01-25T02:40:36.302Z,42.20
2018-01-25T02:43:04.368Z,42.16
2018-01-25T02:45:32.267Z,42.31
2018-01-25T02:48:02.358Z,42.19
2018-01-25T02:50:30.247Z,42.20
2018-01-25T02:52:58.388Z,42.12
2018-01-25T02:55:26.312Z,42.12
2018-01-25T02:57:54.069Z,42.16
2018-01-25T03:00:24.866Z,42.18
2018-01-25T03:02:52.634Z,42.30
2018-01-25T03:05:22.540Z,42.38
2018-01-25T03:07:50.355Z,42.20
2018-01-25T03:10:18.171Z,42.17
2018-01-25T03:12:45.845Z,42.23
2018-01-25T03:15:13.786Z,42.29
2018-01-25T03:17:41.567Z,42.27
2018-01-25T03:20:13.607Z,42.23
2018-01-25T03:22:41.824Z,42.48
2018-01-25T03:25:09.637Z,42.41
2018-01-25T03:27:37.453Z,42.41
2018-01-25T03:30:05.456Z,42.32
2018-01-25T03:32:33.286Z,42.21
2018-01-25T03:35:00.937Z,42.33
2018-01-25T03:37:29.006Z,42.30
2018-01-25T03:39:56.831Z,42.36
2018-01-25T03:42:29.023Z,42.41
2018-01-25T03:44:57.013Z,42.29
2018-01-25T03:47:25.295Z,42.29
2018-01-25T03:49:53.052Z,42.20
2018-01-25T03:52:21.123Z,42.22
2018-01-25T03:54:53.195Z,42.17
2018-01-25T03:57:21.166Z,42.09
2018-01-25T03:59:49.280Z,42.17
2018-01-25T04:02:17.107Z,42.26
2018-01-25T04:04:45.167Z,42.31
2018-01-25T04:07:13.130Z,42.20
2018-01-25T04:09:43.158Z,42.21
2018-01-25T04:12:10.927Z,42.09
2018-01-25T04:14:38.921Z,42.11
2018-01-25T04:17:06.912Z,42.09
2018-01-25T04:19:39.125Z,42.15
2018-01-25T04:22:07.030Z,42.10
2018-01-25T04:24:35.144Z,41.99
2018-01-25T04:27:03.098Z,42.08
2018-01-25T04:29:35.165Z,42.04
2018-01-25T04:32:03.167Z,41.94
2018-01-25T04:34:31.131Z,41.76
2018-01-25T04:36:59.259Z,41.90
2018-01-25T04:39:29.276Z,42.05
2018-01-25T04:41:57.142Z,42.04
2018-01-25T04:44:25.233Z,41.92
2018-01-25T04:46:53.048Z,41.95
2018-01-25T04:49:22.848Z,42.00
2018-01-25T04:51:50.554Z,42.06
2018-01-25T04:54:22.579Z,42.04
2018-01-25T04:56:50.417Z,42.03
2018-01-25T04:59:18.151Z,42.10
2018-01-25T05:01:46.169Z,42.17
2018-01-25T05:04:14.006Z,42.04
2018-01-25T05:06:43.860Z,42.18
2018-01-25T05:09:11.624Z,42.26
2018-01-25T05:11:40.302Z,42.24
2018-01-25T05:14:08.079Z,42.35
2018-01-25T05:16:41.449Z,42.38
2018-01-25T05:19:09.428Z,42.31
2018-01-25T05:21:39.938Z,42.33
2018-01-25T05:24:08.687Z,42.31
2018-01-25T05:26:36.545Z,42.31
2018-01-25T05:29:04.661Z,42.40
2018-01-25T05:31:34.502Z,42.32
2018-01-25T05:34:02.204Z,42.56
2018-01-25T05:36:30.155Z,42.66
2018-01-25T05:38:58.048Z,43.27
2018-01-25T05:41:25.773Z,43.29
2018-01-25T05:43:53.534Z,43.51
2018-01-25T05:46:21.289Z,43.62
2018-01-25T05:48:49.269Z,44.43
2018-01-25T05:51:17.785Z,44.43
2018-01-25T05:53:47.838Z,44.02
2018-01-25T05:56:16.033Z,43.88
2018-01-25T05:58:43.872Z,43.79
2018-01-25T06:01:13.718Z,43.41
2018-01-25T06:03:41.678Z,43.28
2018-01-25T06:06:09.301Z,42.81
2018-01-25T06:08:37.157Z,42.05
2018-01-25T06:11:07.348Z,42.23
2018-01-25T06:13:35.312Z,42.20
2018-01-25T06:16:07.408Z,42.02
2018-01-25T06:18:35.371Z,41.60
2018-01-25T06:21:03.222Z,41.34
2018-01-25T06:23:35.418Z,41.08
2018-01-25T06:26:03.384Z,40.60
2018-01-25T06:28:31.279Z,39.59
2018-01-25T06:31:01.061Z,38.82
2018-01-25T06:33:30.986Z,38.62
2018-01-25T06:35:58.846Z,38.72
2018-01-25T06:38:26.916Z,38.67
2018-01-25T06:40:57.003Z,38.57
2018-01-25T06:43:24.757Z,38.06
2018-01-25T06:45:52.532Z,38.17
2018-01-25T06:48:20.516Z,37.98
2018-01-25T06:50:48.555Z,37.55
2018-01-25T06:53:18.573Z,37.68
2018-01-25T06:55:46.526Z,37.92
2018-01-25T06:58:18.463Z,38.17
2018-01-25T07:00:46.475Z,38.20
2018-01-25T07:03:16.698Z,37.87
2018-01-25T07:05:44.511Z,37.52
2018-01-25T07:08:17.079Z,37.70
2018-01-25T07:10:44.968Z,37.53
2018-01-25T07:13:12.684Z,37.64
2018-01-25T07:15:44.628Z,37.73
2018-01-25T07:18:12.806Z,37.97
2018-01-25T07:20:41.497Z,37.90
2018-01-25T07:23:09.447Z,37.88
2018-01-25T07:25:39.688Z,37.86
2018-01-25T07:28:07.400Z,37.81
2018-01-25T07:30:35.935Z,37.78
2018-01-25T07:33:04.382Z,37.80
2018-01-25T07:35:32.089Z,37.74
2018-01-25T07:38:04.774Z,37.82
2018-01-25T07:40:33.446Z,37.48
2018-01-25T07:43:01.523Z,37.32
2018-01-25T07:45:29.903Z,37.08
2018-01-25T07:47:58.314Z,36.72
2018-01-25T07:50:26.349Z,36.18
2018-01-25T07:52:54.217Z,36.17
2018-01-25T07:55:22.791Z,36.29
2018-01-25T08:00:55.796Z,36.11
2018-01-25T08:03:24.055Z,35.88
2018-01-25T08:05:51.993Z,35.77
2018-01-25T08:08:19.793Z,35.73
2018-01-25T08:10:47.959Z,35.60
2018-01-25T08:13:23.589Z,35.84
2018-01-25T08:15:53.765Z,35.76
2018-01-25T08:18:21.619Z,35.84
2018-01-25T08:20:49.461Z,35.48
2018-01-25T08:23:17.511Z,35.59
2018-01-25T08:25:45.182Z,35.67
2018-01-25T08:28:13.184Z,34.99
2018-01-25T08:30:49.245Z,34.94
2018-01-25T08:33:21.023Z,35.29
2018-01-25T08:35:49.075Z,35.06
2018-01-25T08:38:16.848Z,34.92
2018-01-25T08:40:44.532Z,34.99
2018-01-25T08:43:12.954Z,34.83
2018-01-25T08:45:40.639Z,34.92
2018-01-25T08:48:08.312Z,35.00
2018-01-25T08:50:36.053Z,34.79
2018-01-25T08:53:03.693Z,34.62
2018-01-25T08:55:31.365Z,34.44
2018-01-25T08:57:59.900Z,34.07
2018-01-25T09:00:29.885Z,34.33
2018-01-25T09:02:57.584Z,34.58
2018-01-25T09:05:25.264Z,34.69
2018-01-25T09:07:52.913Z,34.78
2018-01-25T09:10:22.600Z,34.78
2018-01-25T09:12:52.264Z,34.77
2018-01-25T09:15:20.965Z,34.87
2018-01-25T09:17:53.582Z,35.01
2018-01-25T09:20:23.748Z,34.87
2018-01-25T09:22:53.598Z,34.83
2018-01-25T09:25:21.296Z,34.87
2018-01-25T09:27:49.006Z,34.66
2018-01-25T09:30:16.749Z,34.68
2018-01-25T09:32:44.402Z,34.80
2018-01-25T09:35:12.902Z,34.57
2018-01-25T09:37:42.655Z,34.34
2018-01-25T09:40:11.275Z,34.36
2018-01-25T09:42:38.983Z,34.51
2018-01-25T09:45:07.649Z,34.63
2018-01-25T09:47:35.375Z,34.46
2018-01-25T09:50:03.072Z,33.96
2018-01-25T09:52:30.815Z,34.25
2018-01-25T09:54:58.446Z,34.44
2018-01-25T09:57:26.125Z,34.26
2018-01-25T09:59:55.908Z,34.17
2018-01-25T10:02:23.608Z,33.70
2018-01-25T10:04:52.212Z,33.88
2018-01-25T10:07:20.732Z,33.96
2018-01-25T10:09:48.362Z,33.68
2018-01-25T10:12:16.037Z,33.68
2018-01-25T10:14:43.739Z,33.85
2018-01-25T10:17:11.381Z,33.71
2018-01-25T10:19:43.108Z,34.17
2018-01-25T10:22:10.813Z,34.54
2018-01-25T10:24:42.483Z,34.84
2018-01-25T10:27:10.184Z,34.98
2018-01-25T10:29:40.136Z,35.02
2018-01-25T10:32:07.769Z,35.18
2018-01-25T10:34:35.433Z,35.33
2018-01-25T10:37:03.124Z,35.33
2018-01-25T10:39:31.557Z,35.37
2018-01-25T10:41:59.346Z,35.46
2018-01-25T10:44:27.051Z,35.45
2018-01-25T10:46:54.756Z,35.58
2018-01-25T10:49:25.572Z,35.29
2018-01-25T10:51:54.182Z,35.28
2018-01-25T10:54:22.840Z,35.67
2018-01-25T10:56:50.964Z,35.69
2018-01-25T10:59:23.043Z,35.80
2018-01-25T11:01:56.340Z,35.78
2018-01-25T11:04:26.278Z,35.67
2018-01-25T11:06:55.009Z,35.81
2018-01-25T11:09:27.002Z,36.04
2018-01-25T11:11:54.886Z,36.07
2018-01-25T11:14:22.563Z,36.22
2018-01-25T11:16:52.741Z,36.43
2018-01-25T11:19:20.511Z,36.59
2018-01-25T11:21:48.455Z,36.69
2018-01-25T11:24:16.551Z,36.83
2018-01-25T11:26:44.383Z,36.83
2018-01-25T11:29:12.187Z,36.65
2018-01-25T11:31:40.908Z,36.54
2018-01-25T11:34:08.732Z,36.53
2018-01-25T11:36:36.410Z,36.66
2018-01-25T11:39:06.353Z,36.87
2018-01-25T11:41:34.085Z,36.87
2018-01-25T11:44:03.814Z,37.07
2018-01-25T11:46:31.904Z,36.29
2018-01-25T11:48:59.838Z,36.55
2018-01-25T11:51:27.597Z,36.55
2018-01-25T11:53:56.352Z,36.45
2018-01-25T11:56:24.057Z,35.99
2018-01-25T11:58:54.160Z,36.37
2018-01-25T12:01:21.781Z,35.95
2018-01-25T12:03:49.798Z,35.88
2018-01-25T12:06:17.596Z,36.09
2018-01-25T12:08:45.373Z,36.21
2018-01-25T12:11:16.181Z,36.20
2018-01-25T12:13:43.921Z,35.86
2018-01-25T12:16:11.691Z,35.97
2018-01-25T12:18:43.960Z,36.60
2018-01-25T12:21:11.840Z,37.00
2018-01-25T12:23:41.764Z,37.33
2018-01-25T12:26:09.506Z,37.47
2018-01-25T12:28:39.417Z,37.39
2018-01-25T12:31:11.487Z,37.23
2018-01-25T12:33:41.434Z,37.58
2018-01-25T12:36:09.180Z,37.25
2018-01-25T12:38:39.358Z,37.25
2018-01-25T12:41:09.394Z,37.35
2018-01-25T12:43:42.237Z,37.52
2018-01-25T12:46:10.351Z,37.87
2018-01-25T12:48:38.171Z,38.02
2018-01-25T12:51:06.068Z,38.12
2018-01-25T12:53:36.113Z,38.15
2018-01-25T12:56:04.069Z,38.08
2018-01-25T12:58:32.007Z,38.03
2018-01-25T13:01:01.700Z,37.92
2018-01-25T13:03:29.400Z,37.90
2018-01-25T13:05:59.799Z,37.96
2018-01-25T13:08:31.705Z,37.99
2018-01-25T13:10:59.591Z,38.01
2018-01-25T13:13:29.383Z,38.12
2018-01-25T13:15:57.056Z,38.14
2018-01-25T13:18:24.883Z,38.30
2018-01-25T13:20:53.673Z,38.13
2018-01-25T13:23:25.446Z,38.07
2018-01-25T13:25:53.213Z,38.20
2018-01-25T13:28:20.846Z,38.27
2018-01-25T13:30:52.661Z,38.42
2018-01-25T13:33:25.943Z,38.08
2018-01-25T13:35:56.612Z,38.05
2018-01-25T13:38:24.256Z,38.26
2018-01-25T13:40:54.139Z,38.53
2018-01-25T13:43:21.761Z,38.65
2018-01-25T13:45:49.443Z,38.70
2018-01-25T13:48:17.806Z,38.60
2018-01-25T13:50:45.430Z,38.76
2018-01-25T13:53:21.106Z,38.68
2018-01-25T13:55:52.855Z,38.57
2018-01-25T13:58:22.391Z,38.43
2018-01-25T14:00:51.115Z,38.44
2018-01-25T14:03:19.039Z,38.13
2018-01-25T14:05:47.192Z,38.20
2018-01-25T14:08:15.921Z,38.38
2018-01-25T14:10:43.936Z,38.06
2018-01-25T14:13:14.037Z,38.10
2018-01-25T14:15:41.913Z,38.42
2018-01-25T14:18:09.632Z,38.58
2018-01-25T14:20:41.639Z,38.13
2018-01-25T14:23:09.427Z,38.33
2018-01-25T14:25:37.455Z,38.46
2018-01-25T14:28:08.669Z,38.46
2018-01-25T14:30:40.737Z,38.21
2018-01-25T14:33:08.426Z,38.24
2018-01-25T14:35:36.055Z,38.24
2018-01-25T14:38:04.768Z,38.42
2018-01-25T14:40:32.495Z,38.52
2018-01-25T14:43:00.168Z,38.71
2018-01-25T14:45:27.802Z,38.71
2018-01-25T14:47:55.425Z,38.77
2018-01-25T14:50:26.070Z,38.96
2018-01-25T14:52:53.689Z,39.12
2018-01-25T14:55:27.923Z,39.40
2018-01-25T14:57:55.625Z,39.49
2018-01-25T15:00:28.387Z,39.63
2018-01-25T15:02:56.046Z,39.46
2018-01-25T15:05:24.634Z,37.70
2018-01-25T15:07:52.315Z,37.43
2018-01-25T15:10:20.830Z,38.02
2018-01-25T15:12:48.453Z,38.55
2018-01-25T15:15:16.105Z,38.84
2018-01-25T15:17:43.777Z,38.93
2018-01-25T15:20:12.206Z,39.09
2018-01-25T15:22:39.947Z,39.25
2018-01-25T15:25:13.192Z,39.45
2018-01-25T15:27:41.850Z,39.62
2018-01-25T15:30:10.388Z,39.76
2018-01-25T15:32:38.021Z,39.82
2018-01-25T15:35:07.830Z,39.79
2018-01-25T15:37:35.462Z,39.87
2018-01-25T15:40:07.349Z,40.02
2018-01-25T15:42:35.000Z,40.06
2018-01-25T15:45:02.777Z,40.18
2018-01-25T15:47:35.365Z,40.40
2018-01-25T15:50:03.008Z,40.51
2018-01-25T15:52:30.652Z,40.57
2018-01-25T15:54:58.319Z,40.73
2018-01-25T15:57:26.020Z,40.81
2018-01-25T15:59:54.606Z,40.88
2018-01-25T16:02:22.358Z,40.92
2018-01-25T16:04:50.060Z,40.97
2018-01-25T16:07:21.981Z,40.96
2018-01-25T16:09:51.846Z,40.99
2018-01-25T16:12:23.664Z,41.04
2018-01-25T16:14:51.290Z,41.09
2018-01-25T16:17:22.988Z,41.09
2018-01-25T16:19:50.618Z,41.10
2018-01-25T16:22:18.324Z,41.16
2018-01-25T16:24:46.025Z,41.12
2018-01-25T16:27:14.507Z,41.24
2018-01-25T16:29:43.447Z,41.26
2018-01-25T16:32:15.298Z,41.27
2018-01-25T16:34:43.938Z,41.30
2018-01-25T16:37:11.637Z,41.29
2018-01-25T16:39:40.141Z,41.30
2018-01-25T16:42:14.241Z,41.33
2018-01-25T16:44:41.936Z,41.30
2018-01-25T16:47:10.441Z,41.33
2018-01-25T16:49:38.970Z,41.44
2018-01-25T16:52:06.606Z,41.50
2018-01-25T16:54:36.746Z,41.53
2018-01-25T16:57:04.808Z,41.42
2018-01-25T16:59:33.614Z,41.42
2018-01-25T17:02:01.730Z,41.43
2018-01-25T17:04:29.825Z,41.44
2018-01-25T17:06:57.913Z,41.47
2018-01-25T17:09:25.977Z,41.37
2018-01-25T17:11:54.018Z,41.45
2018-01-25T17:14:22.107Z,41.45
2018-01-25T17:16:52.610Z,41.46
2018-01-25T17:19:20.312Z,41.35
2018-01-25T17:21:48.060Z,41.45
2018-01-25T17:24:15.731Z,41.55
2018-01-25T17:26:43.432Z,41.53
2018-01-25T17:29:13.306Z,41.54
2018-01-25T17:31:41.014Z,41.47
2018-01-25T17:34:13.575Z,41.40
2018-01-25T17:36:41.210Z,41.49
2018-01-25T17:39:08.836Z,41.55
2018-01-25T17:41:38.808Z,41.52
2018-01-25T17:44:07.262Z,41.59
2018-01-25T17:46:38.925Z,41.56
2018-01-25T17:49:06.612Z,41.60
2018-01-25T17:51:38.462Z,41.66
2018-01-25T17:54:06.094Z,41.58
2018-01-25T17:56:38.128Z,41.79
2018-01-25T17:59:05.863Z,41.78
2018-01-25T18:01:35.884Z,41.90
2018-01-25T18:04:04.247Z,41.81
2018-01-25T18:06:33.106Z,41.80
2018-01-25T18:09:05.700Z,41.66
2018-01-25T18:11:35.126Z,41.68
2018-01-25T18:14:04.001Z,41.62
2018-01-25T18:16:32.024Z,41.62
2018-01-25T18:19:01.589Z,41.64
2018-01-25T18:21:30.376Z,41.59
2018-01-25T18:23:59.593Z,41.62
2018-01-25T18:26:30.414Z,41.63
2018-01-25T18:29:00.707Z,41.60
2018-01-25T18:31:31.381Z,41.56
2018-01-25T18:34:01.126Z,41.52
2018-01-25T18:36:29.944Z,41.53
2018-01-25T18:38:58.034Z,41.50
2018-01-25T18:41:28.358Z,41.51
2018-01-25T18:43:58.320Z,41.49
2018-01-25T18:46:27.054Z,41.47
2018-01-25T18:48:54.922Z,41.48
2018-01-25T18:51:22.985Z,41.56
2018-01-25T18:53:50.913Z,41.61
2018-01-25T18:56:19.883Z,41.57
2018-01-25T18:58:49.480Z,41.53
2018-01-25T19:01:17.423Z,41.55
2018-01-25T19:03:45.626Z,41.51
2018-01-25T19:06:13.583Z,41.54
2018-01-25T19:08:45.759Z,41.55
2018-01-25T19:11:13.856Z,41.55
2018-01-25T19:13:42.513Z,41.54
2018-01-25T19:16:11.395Z,41.53
2018-01-25T19:18:39.376Z,41.56
2018-01-25T19:21:07.598Z,41.61
2018-01-25T19:23:35.634Z,41.57
2018-01-25T19:26:03.377Z,41.58
2018-01-25T19:28:31.467Z,41.61
2018-01-25T19:31:00.556Z,41.63
2018-01-25T19:33:28.378Z,41.62
2018-01-25T19:36:02.229Z,41.57
2018-01-25T19:38:30.285Z,41.57
2018-01-25T19:41:00.852Z,41.55
2018-01-25T19:43:29.807Z,41.48
2018-01-25T19:46:06.975Z,41.50
2018-01-25T19:48:36.737Z,41.57
2018-01-25T19:51:05.581Z,41.59
2018-01-25T19:53:33.460Z,41.64
2018-01-25T19:56:02.372Z,41.70
2018-01-25T19:58:32.374Z,41.65
2018-01-25T20:01:00.449Z,41.61
2018-01-25T20:03:28.307Z,41.65
2018-01-25T20:05:58.731Z,41.71
2018-01-25T20:08:27.240Z,41.70
2018-01-25T20:10:58.268Z,41.68
2018-01-25T20:13:27.447Z,41.75
2018-01-25T20:15:56.242Z,41.78
2018-01-25T20:18:26.163Z,41.66
2018-01-25T20:20:53.924Z,41.72
2018-01-25T20:23:21.757Z,41.75
2018-01-25T20:25:54.348Z,41.75
2018-01-25T20:28:22.445Z,41.69
2018-01-25T20:30:50.520Z,41.70
2018-01-25T20:33:18.529Z,41.75
2018-01-25T20:35:46.535Z,41.75
2018-01-25T20:38:15.825Z,41.76
2018-01-25T20:40:44.026Z,41.75
2018-01-25T20:43:11.859Z,41.72
2018-01-25T20:45:42.068Z,41.78
2018-01-25T20:48:10.698Z,41.76
2018-01-25T20:50:38.570Z,41.71
2018-01-25T20:53:06.838Z,41.78
2018-01-25T20:55:34.693Z,41.76
2018-01-25T20:58:03.648Z,41.75
2018-01-25T21:00:32.286Z,41.70
2018-01-25T21:03:00.256Z,41.66
2018-01-25T21:05:29.221Z,41.71
2018-01-25T21:07:57.197Z,41.69
2018-01-25T21:10:24.926Z,41.65
2018-01-25T21:12:52.744Z,41.70
2018-01-25T21:15:22.872Z,41.67
2018-01-25T21:17:50.848Z,41.59
2018-01-25T21:20:18.799Z,41.65
2018-01-25T21:22:52.605Z,41.64
2018-01-25T21:25:22.572Z,41.66
2018-01-25T21:27:52.750Z,41.67
2018-01-25T21:30:22.662Z,41.71
2018-01-25T21:32:50.619Z,41.84
2018-01-25T21:35:18.658Z,41.77
2018-01-25T21:37:46.621Z,41.74
2018-01-25T21:40:14.510Z,41.83
2018-01-25T21:42:42.554Z,41.74
2018-01-25T21:45:11.295Z,41.71
2018-01-25T21:47:39.369Z,41.71
2018-01-25T21:50:09.427Z,41.70
2018-01-25T21:52:38.190Z,41.69
2018-01-25T21:55:06.032Z,41.61
2018-01-25T21:57:34.072Z,41.67
2018-01-25T22:00:02.284Z,41.71
2018-01-25T22:02:30.108Z,41.61
2018-01-25T22:04:59.342Z,41.61
2018-01-25T22:07:29.271Z,41.66
2018-01-25T22:09:57.108Z,41.58
2018-01-25T22:12:25.103Z,41.64
2018-01-25T22:14:52.987Z,41.60
2018-01-25T22:17:20.670Z,41.64
2018-01-25T22:19:49.411Z,41.60
2018-01-25T22:22:17.451Z,41.66
2018-01-25T22:24:45.462Z,41.61
2018-01-25T22:27:13.525Z,41.58
2018-01-25T22:29:42.432Z,41.57
2018-01-25T22:32:16.472Z,41.63
2018-01-25T22:34:44.379Z,41.53
2018-01-25T22:37:12.480Z,41.62
2018-01-25T22:39:40.640Z,41.71
2018-01-25T22:42:08.686Z,41.57
2018-01-25T22:44:40.778Z,41.59
2018-01-25T22:47:08.553Z,41.57
2018-01-25T22:49:36.496Z,41.67
2018-01-25T22:52:06.534Z,41.60
2018-01-25T22:54:34.607Z,41.58
2018-01-25T22:57:02.570Z,41.56
2018-01-25T22:59:30.608Z,41.51
2018-01-25T23:01:58.574Z,41.50
2018-01-25T23:04:26.283Z,41.52
2018-01-25T23:06:54.053Z,41.55
2018-01-25T23:09:21.817Z,41.59
2018-01-25T23:11:49.761Z,41.49
2018-01-25T23:14:17.642Z,41.51
2018-01-25T23:16:49.748Z,41.50
2018-01-25T23:19:17.592Z,41.50
2018-01-25T23:21:45.840Z,41.51
2018-01-25T23:24:13.798Z,41.60
2018-01-25T23:26:41.728Z,41.57
2018-01-25T23:29:09.531Z,41.49
2018-01-25T23:31:37.567Z,41.56
2018-01-25T23:34:05.586Z,41.65
2018-01-25T23:36:33.576Z,41.50
2018-01-25T23:39:01.737Z,41.53
2018-01-25T23:41:29.774Z,41.51
2018-01-25T23:43:57.774Z,41.54
2018-01-25T23:46:27.803Z,41.59
2018-01-25T23:48:55.617Z,41.55
2018-01-25T23:51:23.433Z,41.53
2018-01-25T23:53:51.549Z,41.52
2018-01-25T23:56:19.644Z,41.51
2018-01-25T23:58:51.639Z,41.49
